<?xml version="1.0" encoding="UTF-8" standalone="no" ?>
<gpx xmlns="http://www.topografix.com/GPX/1/1" xmlns:xsi="http://www.w3.org/2001/XMLSchema-instance" xsi:schemaLocation="http://www.topografix.com/GPX/1/1 http://www.topografix.com/GPX/1/1/gpx.xsd" version="1.1" creator="VisuGPX - https://www.visugpx.com">
  <metadata>
    <name>Course à pied le midi</name>
  </metadata>
  <trk>
    <name><![CDATA[Course à pied le midi_1]]></name>
    <trkseg>
      <trkpt lat="47.21931" lon="5.99263">
        <ele>273</ele>
        <time>2024-02-26T11:34:41Z</time>
      </trkpt>
      <trkpt lat="47.2191" lon="5.99259">
        <ele>271.8</ele>
        <time>2024-02-26T11:34:50Z</time>
      </trkpt>
      <trkpt lat="47.2189" lon="5.99256">
        <ele>270.5</ele>
        <time>2024-02-26T11:34:58Z</time>
      </trkpt>
      <trkpt lat="47.2187" lon="5.99253">
        <ele>269.2</ele>
        <time>2024-02-26T11:35:06Z</time>
      </trkpt>
      <trkpt lat="47.21851" lon="5.99244">
        <ele>268</ele>
        <time>2024-02-26T11:35:15Z</time>
      </trkpt>
      <trkpt lat="47.21834" lon="5.99256">
        <ele>267.5</ele>
        <time>2024-02-26T11:35:23Z</time>
      </trkpt>
      <trkpt lat="47.21819" lon="5.99274">
        <ele>267.8</ele>
        <time>2024-02-26T11:35:32Z</time>
      </trkpt>
      <trkpt lat="47.21804" lon="5.99293">
        <ele>268.3</ele>
        <time>2024-02-26T11:35:41Z</time>
      </trkpt>
      <trkpt lat="47.2179" lon="5.99313">
        <ele>268.9</ele>
        <time>2024-02-26T11:35:49Z</time>
      </trkpt>
      <trkpt lat="47.21776" lon="5.99334">
        <ele>269.4</ele>
        <time>2024-02-26T11:35:59Z</time>
      </trkpt>
      <trkpt lat="47.21761" lon="5.9935">
        <ele>269.6</ele>
        <time>2024-02-26T11:36:07Z</time>
      </trkpt>
      <trkpt lat="47.21742" lon="5.99361">
        <ele>269.3</ele>
        <time>2024-02-26T11:36:15Z</time>
      </trkpt>
      <trkpt lat="47.21725" lon="5.99375">
        <ele>268.5</ele>
        <time>2024-02-26T11:36:23Z</time>
      </trkpt>
      <trkpt lat="47.21709" lon="5.9939">
        <ele>267</ele>
        <time>2024-02-26T11:36:30Z</time>
      </trkpt>
      <trkpt lat="47.2169" lon="5.99403">
        <ele>264.3</ele>
        <time>2024-02-26T11:36:38Z</time>
      </trkpt>
      <trkpt lat="47.21674" lon="5.99417">
        <ele>261.9</ele>
        <time>2024-02-26T11:36:45Z</time>
      </trkpt>
      <trkpt lat="47.21656" lon="5.99433">
        <ele>259.8</ele>
        <time>2024-02-26T11:36:52Z</time>
      </trkpt>
      <trkpt lat="47.21643" lon="5.99452">
        <ele>258.8</ele>
        <time>2024-02-26T11:36:58Z</time>
      </trkpt>
      <trkpt lat="47.2164" lon="5.99478">
        <ele>258.5</ele>
        <time>2024-02-26T11:37:05Z</time>
      </trkpt>
      <trkpt lat="47.2164" lon="5.99505">
        <ele>258.2</ele>
        <time>2024-02-26T11:37:12Z</time>
      </trkpt>
      <trkpt lat="47.21643" lon="5.99535">
        <ele>257.9</ele>
        <time>2024-02-26T11:37:19Z</time>
      </trkpt>
      <trkpt lat="47.21639" lon="5.99563">
        <ele>257.7</ele>
        <time>2024-02-26T11:37:27Z</time>
      </trkpt>
      <trkpt lat="47.2163" lon="5.99588">
        <ele>257.5</ele>
        <time>2024-02-26T11:37:34Z</time>
      </trkpt>
      <trkpt lat="47.21623" lon="5.99612">
        <ele>257.1</ele>
        <time>2024-02-26T11:37:41Z</time>
      </trkpt>
      <trkpt lat="47.21619" lon="5.99639">
        <ele>256.8</ele>
        <time>2024-02-26T11:37:49Z</time>
      </trkpt>
      <trkpt lat="47.21614" lon="5.99666">
        <ele>256.3</ele>
        <time>2024-02-26T11:37:57Z</time>
      </trkpt>
      <trkpt lat="47.2161" lon="5.99693">
        <ele>256.2</ele>
        <time>2024-02-26T11:38:05Z</time>
      </trkpt>
      <trkpt lat="47.21607" lon="5.99719">
        <ele>256.1</ele>
        <time>2024-02-26T11:38:12Z</time>
      </trkpt>
      <trkpt lat="47.21603" lon="5.99748">
        <ele>255.8</ele>
        <time>2024-02-26T11:38:20Z</time>
      </trkpt>
      <trkpt lat="47.21598" lon="5.99775">
        <ele>255</ele>
        <time>2024-02-26T11:38:28Z</time>
      </trkpt>
      <trkpt lat="47.21589" lon="5.998">
        <ele>253</ele>
        <time>2024-02-26T11:38:36Z</time>
      </trkpt>
      <trkpt lat="47.21577" lon="5.99822">
        <ele>250.7</ele>
        <time>2024-02-26T11:38:43Z</time>
      </trkpt>
      <trkpt lat="47.2157" lon="5.99848">
        <ele>249</ele>
        <time>2024-02-26T11:38:50Z</time>
      </trkpt>
      <trkpt lat="47.21571" lon="5.99858">
        <ele>248.5</ele>
        <time>2024-02-26T11:38:53Z</time>
      </trkpt>
      <trkpt lat="47.21575" lon="5.99863">
        <ele>248.6</ele>
        <time>2024-02-26T11:38:58Z</time>
      </trkpt>
      <trkpt lat="47.21577" lon="5.99865">
        <ele>248.6</ele>
        <time>2024-02-26T11:39:00Z</time>
      </trkpt>
      <trkpt lat="47.21595" lon="5.99862">
        <ele>251.2</ele>
        <time>2024-02-26T11:39:12Z</time>
      </trkpt>
      <trkpt lat="47.21613" lon="5.99857">
        <ele>255.5</ele>
        <time>2024-02-26T11:39:25Z</time>
      </trkpt>
      <trkpt lat="47.21632" lon="5.99859">
        <ele>259.2</ele>
        <time>2024-02-26T11:39:42Z</time>
      </trkpt>
      <trkpt lat="47.21634" lon="5.99857">
        <ele>259.8</ele>
        <time>2024-02-26T11:39:45Z</time>
      </trkpt>
      <trkpt lat="47.21632" lon="5.99841">
        <ele>262.7</ele>
        <time>2024-02-26T11:39:55Z</time>
      </trkpt>
      <trkpt lat="47.21633" lon="5.99841">
        <ele>263.1</ele>
        <time>2024-02-26T11:39:58Z</time>
      </trkpt>
      <trkpt lat="47.21652" lon="5.99839">
        <ele>270.6</ele>
        <time>2024-02-26T11:40:19Z</time>
      </trkpt>
      <trkpt lat="47.21666" lon="5.99839">
        <ele>276.9</ele>
        <time>2024-02-26T11:40:37Z</time>
      </trkpt>
      <trkpt lat="47.21674" lon="5.99839">
        <ele>280.5</ele>
        <time>2024-02-26T11:41:05Z</time>
      </trkpt>
      <trkpt lat="47.21674" lon="5.99838">
        <ele>280.6</ele>
        <time>2024-02-26T11:41:18Z</time>
      </trkpt>
      <trkpt lat="47.21675" lon="5.99838">
        <ele>280.8</ele>
        <time>2024-02-26T11:41:19Z</time>
      </trkpt>
      <trkpt lat="47.21678" lon="5.99838">
        <ele>282.1</ele>
        <time>2024-02-26T11:41:24Z</time>
      </trkpt>
      <trkpt lat="47.2168" lon="5.99839">
        <ele>282.8</ele>
        <time>2024-02-26T11:41:26Z</time>
      </trkpt>
      <trkpt lat="47.21682" lon="5.99839">
        <ele>283.7</ele>
        <time>2024-02-26T11:41:29Z</time>
      </trkpt>
      <trkpt lat="47.21688" lon="5.99818">
        <ele>287.2</ele>
        <time>2024-02-26T11:41:46Z</time>
      </trkpt>
      <trkpt lat="47.21691" lon="5.99794">
        <ele>289.8</ele>
        <time>2024-02-26T11:41:59Z</time>
      </trkpt>
      <trkpt lat="47.21696" lon="5.99787">
        <ele>291.8</ele>
        <time>2024-02-26T11:42:06Z</time>
      </trkpt>
      <trkpt lat="47.21698" lon="5.99784">
        <ele>293</ele>
        <time>2024-02-26T11:42:10Z</time>
      </trkpt>
      <trkpt lat="47.21705" lon="5.99779">
        <ele>296</ele>
        <time>2024-02-26T11:42:19Z</time>
      </trkpt>
      <trkpt lat="47.21707" lon="5.99778">
        <ele>296.9</ele>
        <time>2024-02-26T11:42:21Z</time>
      </trkpt>
      <trkpt lat="47.21709" lon="5.99773">
        <ele>298.7</ele>
        <time>2024-02-26T11:42:25Z</time>
      </trkpt>
      <trkpt lat="47.2171" lon="5.99769">
        <ele>299.9</ele>
        <time>2024-02-26T11:42:28Z</time>
      </trkpt>
      <trkpt lat="47.21727" lon="5.99776">
        <ele>308.7</ele>
        <time>2024-02-26T11:42:51Z</time>
      </trkpt>
      <trkpt lat="47.2174" lon="5.99792">
        <ele>316.9</ele>
        <time>2024-02-26T11:43:19Z</time>
      </trkpt>
      <trkpt lat="47.21756" lon="5.99799">
        <ele>325</ele>
        <time>2024-02-26T11:43:56Z</time>
      </trkpt>
      <trkpt lat="47.21769" lon="5.99813">
        <ele>332.7</ele>
        <time>2024-02-26T11:44:20Z</time>
      </trkpt>
      <trkpt lat="47.21785" lon="5.99823">
        <ele>340.4</ele>
        <time>2024-02-26T11:44:52Z</time>
      </trkpt>
      <trkpt lat="47.21798" lon="5.99841">
        <ele>348.4</ele>
        <time>2024-02-26T11:45:22Z</time>
      </trkpt>
      <trkpt lat="47.21808" lon="5.99862">
        <ele>356.6</ele>
        <time>2024-02-26T11:45:53Z</time>
      </trkpt>
      <trkpt lat="47.21823" lon="5.99876">
        <ele>364.4</ele>
        <time>2024-02-26T11:46:25Z</time>
      </trkpt>
      <trkpt lat="47.21833" lon="5.99899">
        <ele>371.5</ele>
        <time>2024-02-26T11:46:50Z</time>
      </trkpt>
      <trkpt lat="47.21845" lon="5.99918">
        <ele>378.6</ele>
        <time>2024-02-26T11:47:18Z</time>
      </trkpt>
      <trkpt lat="47.2186" lon="5.99926">
        <ele>383.4</ele>
        <time>2024-02-26T11:47:45Z</time>
      </trkpt>
      <trkpt lat="47.2187" lon="5.99951">
        <ele>386.7</ele>
        <time>2024-02-26T11:47:58Z</time>
      </trkpt>
      <trkpt lat="47.21885" lon="5.9997">
        <ele>389.6</ele>
        <time>2024-02-26T11:48:10Z</time>
      </trkpt>
      <trkpt lat="47.21893" lon="5.99974">
        <ele>390.7</ele>
        <time>2024-02-26T11:48:15Z</time>
      </trkpt>
      <trkpt lat="47.219" lon="5.99977">
        <ele>391.3</ele>
        <time>2024-02-26T11:48:21Z</time>
      </trkpt>
      <trkpt lat="47.21901" lon="5.99981">
        <ele>391.5</ele>
        <time>2024-02-26T11:48:23Z</time>
      </trkpt>
      <trkpt lat="47.21911" lon="6.00004">
        <ele>391.3</ele>
        <time>2024-02-26T11:48:33Z</time>
      </trkpt>
      <trkpt lat="47.21911" lon="6.00008">
        <ele>391.3</ele>
        <time>2024-02-26T11:48:35Z</time>
      </trkpt>
      <trkpt lat="47.21914" lon="6.00018">
        <ele>391.4</ele>
        <time>2024-02-26T11:48:39Z</time>
      </trkpt>
      <trkpt lat="47.21924" lon="6.00028">
        <ele>391.4</ele>
        <time>2024-02-26T11:48:46Z</time>
      </trkpt>
      <trkpt lat="47.21931" lon="6.00053">
        <ele>391.5</ele>
        <time>2024-02-26T11:48:55Z</time>
      </trkpt>
      <trkpt lat="47.2194" lon="6.00078">
        <ele>391.2</ele>
        <time>2024-02-26T11:49:05Z</time>
      </trkpt>
      <trkpt lat="47.21958" lon="6.0009">
        <ele>389.7</ele>
        <time>2024-02-26T11:49:13Z</time>
      </trkpt>
      <trkpt lat="47.21962" lon="6.00094">
        <ele>389.3</ele>
        <time>2024-02-26T11:49:15Z</time>
      </trkpt>
      <trkpt lat="47.21975" lon="6.00113">
        <ele>387.6</ele>
        <time>2024-02-26T11:49:23Z</time>
      </trkpt>
      <trkpt lat="47.21994" lon="6.00118">
        <ele>385.7</ele>
        <time>2024-02-26T11:49:30Z</time>
      </trkpt>
      <trkpt lat="47.22002" lon="6.00117">
        <ele>385.3</ele>
        <time>2024-02-26T11:49:36Z</time>
      </trkpt>
      <trkpt lat="47.22003" lon="6.00116">
        <ele>385.3</ele>
        <time>2024-02-26T11:49:39Z</time>
      </trkpt>
      <trkpt lat="47.22017" lon="6.00104">
        <ele>387.6</ele>
        <time>2024-02-26T11:49:58Z</time>
      </trkpt>
      <trkpt lat="47.22034" lon="6.00094">
        <ele>391.1</ele>
        <time>2024-02-26T11:50:08Z</time>
      </trkpt>
      <trkpt lat="47.22051" lon="6.0009">
        <ele>396.1</ele>
        <time>2024-02-26T11:50:21Z</time>
      </trkpt>
      <trkpt lat="47.22068" lon="6.00091">
        <ele>402.8</ele>
        <time>2024-02-26T11:50:47Z</time>
      </trkpt>
      <trkpt lat="47.2208" lon="6.00107">
        <ele>409.4</ele>
        <time>2024-02-26T11:51:06Z</time>
      </trkpt>
      <trkpt lat="47.22081" lon="6.00109">
        <ele>409.7</ele>
        <time>2024-02-26T11:51:08Z</time>
      </trkpt>
      <trkpt lat="47.22081" lon="6.00109">
        <ele>410</ele>
        <time>2024-02-26T11:51:10Z</time>
      </trkpt>
      <trkpt lat="47.22089" lon="6.00117">
        <ele>413.7</ele>
        <time>2024-02-26T11:51:17Z</time>
      </trkpt>
      <trkpt lat="47.22092" lon="6.00115">
        <ele>415.5</ele>
        <time>2024-02-26T11:51:21Z</time>
      </trkpt>
      <trkpt lat="47.22106" lon="6.00106">
        <ele>422.9</ele>
        <time>2024-02-26T11:51:50Z</time>
      </trkpt>
      <trkpt lat="47.22104" lon="6.0008">
        <ele>425.4</ele>
        <time>2024-02-26T11:52:07Z</time>
      </trkpt>
      <trkpt lat="47.22108" lon="6.00053">
        <ele>426.1</ele>
        <time>2024-02-26T11:52:15Z</time>
      </trkpt>
      <trkpt lat="47.22116" lon="6.00026">
        <ele>427.6</ele>
        <time>2024-02-26T11:52:24Z</time>
      </trkpt>
      <trkpt lat="47.22124" lon="6.00001">
        <ele>428.7</ele>
        <time>2024-02-26T11:52:35Z</time>
      </trkpt>
      <trkpt lat="47.22131" lon="5.99977">
        <ele>430.3</ele>
        <time>2024-02-26T11:52:56Z</time>
      </trkpt>
      <trkpt lat="47.22136" lon="5.99977">
        <ele>430.8</ele>
        <time>2024-02-26T11:53:08Z</time>
      </trkpt>
      <trkpt lat="47.22136" lon="5.9998">
        <ele>431</ele>
        <time>2024-02-26T11:53:10Z</time>
      </trkpt>
      <trkpt lat="47.22137" lon="5.99983">
        <ele>431.3</ele>
        <time>2024-02-26T11:53:14Z</time>
      </trkpt>
      <trkpt lat="47.22137" lon="5.99985">
        <ele>431.5</ele>
        <time>2024-02-26T11:53:16Z</time>
      </trkpt>
      <trkpt lat="47.22152" lon="5.9998">
        <ele>447.6</ele>
        <time>2024-02-26T11:53:52Z</time>
      </trkpt>
      <trkpt lat="47.22155" lon="5.99963">
        <ele>451.2</ele>
        <time>2024-02-26T11:53:59Z</time>
      </trkpt>
      <trkpt lat="47.22163" lon="5.99957">
        <ele>452.6</ele>
        <time>2024-02-26T11:54:05Z</time>
      </trkpt>
      <trkpt lat="47.22165" lon="5.99958">
        <ele>452.8</ele>
        <time>2024-02-26T11:54:08Z</time>
      </trkpt>
      <trkpt lat="47.22166" lon="5.99964">
        <ele>453.1</ele>
        <time>2024-02-26T11:56:42Z</time>
      </trkpt>
      <trkpt lat="47.22166" lon="5.99965">
        <ele>453.1</ele>
        <time>2024-02-26T11:56:43Z</time>
      </trkpt>
      <trkpt lat="47.22167" lon="5.99971">
        <ele>453.4</ele>
        <time>2024-02-26T11:56:48Z</time>
      </trkpt>
      <trkpt lat="47.22177" lon="5.99992">
        <ele>459.6</ele>
        <time>2024-02-26T11:57:06Z</time>
      </trkpt>
      <trkpt lat="47.22174" lon="6.00019">
        <ele>460.1</ele>
        <time>2024-02-26T11:57:17Z</time>
      </trkpt>
      <trkpt lat="47.22179" lon="6.00036">
        <ele>459.7</ele>
        <time>2024-02-26T11:57:25Z</time>
      </trkpt>
      <trkpt lat="47.22198" lon="6.00045">
        <ele>458.6</ele>
        <time>2024-02-26T11:57:33Z</time>
      </trkpt>
      <trkpt lat="47.222" lon="6.00045">
        <ele>458.4</ele>
        <time>2024-02-26T11:57:34Z</time>
      </trkpt>
      <trkpt lat="47.22207" lon="6.00035">
        <ele>457.7</ele>
        <time>2024-02-26T11:57:39Z</time>
      </trkpt>
      <trkpt lat="47.22227" lon="6.00039">
        <ele>455.4</ele>
        <time>2024-02-26T11:57:49Z</time>
      </trkpt>
      <trkpt lat="47.22242" lon="6.00054">
        <ele>452.3</ele>
        <time>2024-02-26T11:57:57Z</time>
      </trkpt>
      <trkpt lat="47.22257" lon="6.00076">
        <ele>448.7</ele>
        <time>2024-02-26T11:58:05Z</time>
      </trkpt>
      <trkpt lat="47.22269" lon="6.00096">
        <ele>445.5</ele>
        <time>2024-02-26T11:58:12Z</time>
      </trkpt>
      <trkpt lat="47.22277" lon="6.00121">
        <ele>442.7</ele>
        <time>2024-02-26T11:58:19Z</time>
      </trkpt>
      <trkpt lat="47.22265" lon="6.0014">
        <ele>440.6</ele>
        <time>2024-02-26T11:58:27Z</time>
      </trkpt>
      <trkpt lat="47.22246" lon="6.00143">
        <ele>439.7</ele>
        <time>2024-02-26T11:58:34Z</time>
      </trkpt>
      <trkpt lat="47.22228" lon="6.00144">
        <ele>438.6</ele>
        <time>2024-02-26T11:58:42Z</time>
      </trkpt>
      <trkpt lat="47.22209" lon="6.00134">
        <ele>437.2</ele>
        <time>2024-02-26T11:58:49Z</time>
      </trkpt>
      <trkpt lat="47.22189" lon="6.00125">
        <ele>435.7</ele>
        <time>2024-02-26T11:58:56Z</time>
      </trkpt>
      <trkpt lat="47.22172" lon="6.00117">
        <ele>434.4</ele>
        <time>2024-02-26T11:59:03Z</time>
      </trkpt>
      <trkpt lat="47.22154" lon="6.00108">
        <ele>433.1</ele>
        <time>2024-02-26T11:59:11Z</time>
      </trkpt>
      <trkpt lat="47.22136" lon="6.00099">
        <ele>431.8</ele>
        <time>2024-02-26T11:59:17Z</time>
      </trkpt>
      <trkpt lat="47.22121" lon="6.00081">
        <ele>430.7</ele>
        <time>2024-02-26T11:59:24Z</time>
      </trkpt>
      <trkpt lat="47.2212" lon="6.00052">
        <ele>429.6</ele>
        <time>2024-02-26T11:59:32Z</time>
      </trkpt>
      <trkpt lat="47.22117" lon="6.00029">
        <ele>427.4</ele>
        <time>2024-02-26T11:59:41Z</time>
      </trkpt>
      <trkpt lat="47.2211" lon="6.00056">
        <ele>426.1</ele>
        <time>2024-02-26T11:59:49Z</time>
      </trkpt>
      <trkpt lat="47.2211" lon="6.00082">
        <ele>425.4</ele>
        <time>2024-02-26T11:59:56Z</time>
      </trkpt>
      <trkpt lat="47.22113" lon="6.00103">
        <ele>424.9</ele>
        <time>2024-02-26T12:00:04Z</time>
      </trkpt>
      <trkpt lat="47.22111" lon="6.00105">
        <ele>424.8</ele>
        <time>2024-02-26T12:00:07Z</time>
      </trkpt>
      <trkpt lat="47.22105" lon="6.00105">
        <ele>422.5</ele>
        <time>2024-02-26T12:00:13Z</time>
      </trkpt>
      <trkpt lat="47.22099" lon="6.00106">
        <ele>420</ele>
        <time>2024-02-26T12:00:18Z</time>
      </trkpt>
      <trkpt lat="47.22097" lon="6.00108">
        <ele>419</ele>
        <time>2024-02-26T12:00:21Z</time>
      </trkpt>
      <trkpt lat="47.22093" lon="6.00113">
        <ele>416.7</ele>
        <time>2024-02-26T12:00:25Z</time>
      </trkpt>
      <trkpt lat="47.22092" lon="6.00114">
        <ele>415.9</ele>
        <time>2024-02-26T12:00:26Z</time>
      </trkpt>
      <trkpt lat="47.22089" lon="6.00118">
        <ele>413.6</ele>
        <time>2024-02-26T12:00:30Z</time>
      </trkpt>
      <trkpt lat="47.22076" lon="6.00101">
        <ele>407.1</ele>
        <time>2024-02-26T12:00:45Z</time>
      </trkpt>
      <trkpt lat="47.22073" lon="6.0009">
        <ele>403.6</ele>
        <time>2024-02-26T12:00:54Z</time>
      </trkpt>
      <trkpt lat="47.2207" lon="6.00087">
        <ele>402.4</ele>
        <time>2024-02-26T12:00:56Z</time>
      </trkpt>
      <trkpt lat="47.22068" lon="6.00086">
        <ele>401.3</ele>
        <time>2024-02-26T12:00:59Z</time>
      </trkpt>
      <trkpt lat="47.2206" lon="6.00089">
        <ele>398.3</ele>
        <time>2024-02-26T12:01:04Z</time>
      </trkpt>
      <trkpt lat="47.22043" lon="6.00096">
        <ele>392.7</ele>
        <time>2024-02-26T12:01:12Z</time>
      </trkpt>
      <trkpt lat="47.22024" lon="6.00102">
        <ele>388.8</ele>
        <time>2024-02-26T12:01:20Z</time>
      </trkpt>
      <trkpt lat="47.22014" lon="6.00108">
        <ele>385.5</ele>
        <time>2024-02-26T12:01:27Z</time>
      </trkpt>
      <trkpt lat="47.22007" lon="6.00132">
        <ele>384.5</ele>
        <time>2024-02-26T12:01:36Z</time>
      </trkpt>
      <trkpt lat="47.22006" lon="6.00159">
        <ele>382.6</ele>
        <time>2024-02-26T12:01:44Z</time>
      </trkpt>
      <trkpt lat="47.22007" lon="6.00188">
        <ele>379.3</ele>
        <time>2024-02-26T12:01:51Z</time>
      </trkpt>
      <trkpt lat="47.22011" lon="6.00216">
        <ele>376.1</ele>
        <time>2024-02-26T12:01:58Z</time>
      </trkpt>
      <trkpt lat="47.22016" lon="6.00243">
        <ele>373.1</ele>
        <time>2024-02-26T12:02:06Z</time>
      </trkpt>
      <trkpt lat="47.22025" lon="6.00268">
        <ele>370.6</ele>
        <time>2024-02-26T12:02:13Z</time>
      </trkpt>
      <trkpt lat="47.22027" lon="6.00295">
        <ele>368.5</ele>
        <time>2024-02-26T12:02:20Z</time>
      </trkpt>
      <trkpt lat="47.2203" lon="6.00321">
        <ele>366.2</ele>
        <time>2024-02-26T12:02:28Z</time>
      </trkpt>
      <trkpt lat="47.22044" lon="6.00344">
        <ele>362.6</ele>
        <time>2024-02-26T12:02:36Z</time>
      </trkpt>
      <trkpt lat="47.22056" lon="6.00363">
        <ele>358.9</ele>
        <time>2024-02-26T12:02:42Z</time>
      </trkpt>
      <trkpt lat="47.22066" lon="6.00385">
        <ele>355.2</ele>
        <time>2024-02-26T12:02:48Z</time>
      </trkpt>
      <trkpt lat="47.22073" lon="6.0041">
        <ele>351.3</ele>
        <time>2024-02-26T12:02:55Z</time>
      </trkpt>
      <trkpt lat="47.22083" lon="6.00432">
        <ele>346.9</ele>
        <time>2024-02-26T12:03:02Z</time>
      </trkpt>
      <trkpt lat="47.22094" lon="6.00458">
        <ele>341.9</ele>
        <time>2024-02-26T12:03:09Z</time>
      </trkpt>
      <trkpt lat="47.22104" lon="6.00483">
        <ele>337.6</ele>
        <time>2024-02-26T12:03:15Z</time>
      </trkpt>
      <trkpt lat="47.22114" lon="6.0051">
        <ele>333.3</ele>
        <time>2024-02-26T12:03:22Z</time>
      </trkpt>
      <trkpt lat="47.22122" lon="6.00535">
        <ele>329.4</ele>
        <time>2024-02-26T12:03:28Z</time>
      </trkpt>
      <trkpt lat="47.22126" lon="6.00563">
        <ele>325.5</ele>
        <time>2024-02-26T12:03:35Z</time>
      </trkpt>
      <trkpt lat="47.22134" lon="6.00588">
        <ele>321.7</ele>
        <time>2024-02-26T12:03:41Z</time>
      </trkpt>
      <trkpt lat="47.22134" lon="6.00604">
        <ele>320.2</ele>
        <time>2024-02-26T12:03:45Z</time>
      </trkpt>
      <trkpt lat="47.2212" lon="6.00624">
        <ele>320.9</ele>
        <time>2024-02-26T12:03:53Z</time>
      </trkpt>
      <trkpt lat="47.22111" lon="6.00648">
        <ele>321.2</ele>
        <time>2024-02-26T12:04:01Z</time>
      </trkpt>
      <trkpt lat="47.22102" lon="6.00673">
        <ele>320.9</ele>
        <time>2024-02-26T12:04:10Z</time>
      </trkpt>
      <trkpt lat="47.22097" lon="6.00702">
        <ele>315.5</ele>
        <time>2024-02-26T12:04:20Z</time>
      </trkpt>
      <trkpt lat="47.2209" lon="6.00727">
        <ele>310.8</ele>
        <time>2024-02-26T12:04:29Z</time>
      </trkpt>
      <trkpt lat="47.22085" lon="6.00753">
        <ele>305.8</ele>
        <time>2024-02-26T12:04:38Z</time>
      </trkpt>
      <trkpt lat="47.22082" lon="6.0078">
        <ele>299.5</ele>
        <time>2024-02-26T12:04:49Z</time>
      </trkpt>
      <trkpt lat="47.22075" lon="6.00803">
        <ele>291.2</ele>
        <time>2024-02-26T12:05:03Z</time>
      </trkpt>
      <trkpt lat="47.22075" lon="6.00812">
        <ele>288.8</ele>
        <time>2024-02-26T12:05:11Z</time>
      </trkpt>
      <trkpt lat="47.22075" lon="6.00812">
        <ele>288.8</ele>
        <time>2024-02-26T12:05:13Z</time>
      </trkpt>
      <trkpt lat="47.22075" lon="6.00812">
        <ele>288.8</ele>
        <time>2024-02-26T12:05:16Z</time>
      </trkpt>
      <trkpt lat="47.22067" lon="6.00826">
        <ele>284.9</ele>
        <time>2024-02-26T12:05:21Z</time>
      </trkpt>
      <trkpt lat="47.22058" lon="6.0085">
        <ele>282</ele>
        <time>2024-02-26T12:05:30Z</time>
      </trkpt>
      <trkpt lat="47.22047" lon="6.00873">
        <ele>277.5</ele>
        <time>2024-02-26T12:05:39Z</time>
      </trkpt>
      <trkpt lat="47.22046" lon="6.0089">
        <ele>274.5</ele>
        <time>2024-02-26T12:05:45Z</time>
      </trkpt>
      <trkpt lat="47.22046" lon="6.00894">
        <ele>273.8</ele>
        <time>2024-02-26T12:05:47Z</time>
      </trkpt>
      <trkpt lat="47.22046" lon="6.00905">
        <ele>272.7</ele>
        <time>2024-02-26T12:05:51Z</time>
      </trkpt>
      <trkpt lat="47.22028" lon="6.00903">
        <ele>268.7</ele>
        <time>2024-02-26T12:05:59Z</time>
      </trkpt>
      <trkpt lat="47.22009" lon="6.00895">
        <ele>263.8</ele>
        <time>2024-02-26T12:06:07Z</time>
      </trkpt>
      <trkpt lat="47.2199" lon="6.00892">
        <ele>259.3</ele>
        <time>2024-02-26T12:06:19Z</time>
      </trkpt>
      <trkpt lat="47.21988" lon="6.00893">
        <ele>258.5</ele>
        <time>2024-02-26T12:06:21Z</time>
      </trkpt>
      <trkpt lat="47.21972" lon="6.00904">
        <ele>251.7</ele>
        <time>2024-02-26T12:06:33Z</time>
      </trkpt>
      <trkpt lat="47.21969" lon="6.00905">
        <ele>251</ele>
        <time>2024-02-26T12:06:35Z</time>
      </trkpt>
      <trkpt lat="47.2197" lon="6.00931">
        <ele>249.7</ele>
        <time>2024-02-26T12:06:42Z</time>
      </trkpt>
      <trkpt lat="47.21977" lon="6.00957">
        <ele>249</ele>
        <time>2024-02-26T12:06:49Z</time>
      </trkpt>
      <trkpt lat="47.21984" lon="6.00981">
        <ele>248.7</ele>
        <time>2024-02-26T12:06:56Z</time>
      </trkpt>
      <trkpt lat="47.2199" lon="6.01007">
        <ele>248.3</ele>
        <time>2024-02-26T12:07:03Z</time>
      </trkpt>
      <trkpt lat="47.2199" lon="6.01034">
        <ele>247.9</ele>
        <time>2024-02-26T12:07:10Z</time>
      </trkpt>
      <trkpt lat="47.21988" lon="6.01062">
        <ele>247.2</ele>
        <time>2024-02-26T12:07:17Z</time>
      </trkpt>
      <trkpt lat="47.21984" lon="6.01088">
        <ele>246.5</ele>
        <time>2024-02-26T12:07:24Z</time>
      </trkpt>
      <trkpt lat="47.21981" lon="6.01117">
        <ele>246.1</ele>
        <time>2024-02-26T12:07:32Z</time>
      </trkpt>
      <trkpt lat="47.2198" lon="6.01147">
        <ele>245.6</ele>
        <time>2024-02-26T12:07:40Z</time>
      </trkpt>
      <trkpt lat="47.21978" lon="6.01177">
        <ele>244.6</ele>
        <time>2024-02-26T12:07:48Z</time>
      </trkpt>
      <trkpt lat="47.21972" lon="6.01189">
        <ele>244</ele>
        <time>2024-02-26T12:07:52Z</time>
      </trkpt>
      <trkpt lat="47.2196" lon="6.0119">
        <ele>243.3</ele>
        <time>2024-02-26T12:07:57Z</time>
      </trkpt>
      <trkpt lat="47.21958" lon="6.01218">
        <ele>242.8</ele>
        <time>2024-02-26T12:08:04Z</time>
      </trkpt>
      <trkpt lat="47.21959" lon="6.01245">
        <ele>242.7</ele>
        <time>2024-02-26T12:08:11Z</time>
      </trkpt>
      <trkpt lat="47.21959" lon="6.01273">
        <ele>242.5</ele>
        <time>2024-02-26T12:08:18Z</time>
      </trkpt>
      <trkpt lat="47.21956" lon="6.013">
        <ele>242.4</ele>
        <time>2024-02-26T12:08:25Z</time>
      </trkpt>
      <trkpt lat="47.21953" lon="6.01326">
        <ele>242.3</ele>
        <time>2024-02-26T12:08:32Z</time>
      </trkpt>
      <trkpt lat="47.21949" lon="6.01353">
        <ele>242.2</ele>
        <time>2024-02-26T12:08:39Z</time>
      </trkpt>
      <trkpt lat="47.21945" lon="6.01381">
        <ele>242.1</ele>
        <time>2024-02-26T12:08:46Z</time>
      </trkpt>
      <trkpt lat="47.21938" lon="6.01408">
        <ele>242</ele>
        <time>2024-02-26T12:08:53Z</time>
      </trkpt>
      <trkpt lat="47.21933" lon="6.01436">
        <ele>242</ele>
        <time>2024-02-26T12:09:00Z</time>
      </trkpt>
      <trkpt lat="47.21929" lon="6.01464">
        <ele>242</ele>
        <time>2024-02-26T12:09:07Z</time>
      </trkpt>
      <trkpt lat="47.21928" lon="6.01491">
        <ele>242.2</ele>
        <time>2024-02-26T12:09:14Z</time>
      </trkpt>
      <trkpt lat="47.21931" lon="6.01518">
        <ele>242.4</ele>
        <time>2024-02-26T12:09:21Z</time>
      </trkpt>
      <trkpt lat="47.21943" lon="6.01542">
        <ele>242.8</ele>
        <time>2024-02-26T12:09:28Z</time>
      </trkpt>
      <trkpt lat="47.21951" lon="6.0157">
        <ele>243.3</ele>
        <time>2024-02-26T12:09:35Z</time>
      </trkpt>
      <trkpt lat="47.21961" lon="6.01595">
        <ele>244</ele>
        <time>2024-02-26T12:09:42Z</time>
      </trkpt>
      <trkpt lat="47.21964" lon="6.01624">
        <ele>244.9</ele>
        <time>2024-02-26T12:09:50Z</time>
      </trkpt>
      <trkpt lat="47.21965" lon="6.01652">
        <ele>245.9</ele>
        <time>2024-02-26T12:09:57Z</time>
      </trkpt>
      <trkpt lat="47.21964" lon="6.01665">
        <ele>246.3</ele>
        <time>2024-02-26T12:10:02Z</time>
      </trkpt>
      <trkpt lat="47.21967" lon="6.01666">
        <ele>246.5</ele>
        <time>2024-02-26T12:10:10Z</time>
      </trkpt>
      <trkpt lat="47.21949" lon="6.01684">
        <ele>246.6</ele>
        <time>2024-02-26T12:10:18Z</time>
      </trkpt>
      <trkpt lat="47.2195" lon="6.01715">
        <ele>248</ele>
        <time>2024-02-26T12:10:25Z</time>
      </trkpt>
      <trkpt lat="47.21956" lon="6.01728">
        <ele>249.4</ele>
        <time>2024-02-26T12:10:29Z</time>
      </trkpt>
      <trkpt lat="47.21965" lon="6.01752">
        <ele>251.7</ele>
        <time>2024-02-26T12:10:36Z</time>
      </trkpt>
      <trkpt lat="47.21976" lon="6.01772">
        <ele>254.1</ele>
        <time>2024-02-26T12:10:43Z</time>
      </trkpt>
      <trkpt lat="47.21994" lon="6.01782">
        <ele>255</ele>
        <time>2024-02-26T12:10:51Z</time>
      </trkpt>
      <trkpt lat="47.22014" lon="6.01784">
        <ele>256.6</ele>
        <time>2024-02-26T12:11:00Z</time>
      </trkpt>
      <trkpt lat="47.22032" lon="6.01788">
        <ele>258.6</ele>
        <time>2024-02-26T12:11:08Z</time>
      </trkpt>
      <trkpt lat="47.22047" lon="6.01803">
        <ele>260.9</ele>
        <time>2024-02-26T12:11:17Z</time>
      </trkpt>
      <trkpt lat="47.22064" lon="6.01817">
        <ele>263.9</ele>
        <time>2024-02-26T12:11:27Z</time>
      </trkpt>
      <trkpt lat="47.22081" lon="6.01833">
        <ele>267</ele>
        <time>2024-02-26T12:11:38Z</time>
      </trkpt>
      <trkpt lat="47.22096" lon="6.0185">
        <ele>269.5</ele>
        <time>2024-02-26T12:11:48Z</time>
      </trkpt>
      <trkpt lat="47.22113" lon="6.01867">
        <ele>271.9</ele>
        <time>2024-02-26T12:11:58Z</time>
      </trkpt>
      <trkpt lat="47.22125" lon="6.01888">
        <ele>274.2</ele>
        <time>2024-02-26T12:12:07Z</time>
      </trkpt>
      <trkpt lat="47.22141" lon="6.01905">
        <ele>277.1</ele>
        <time>2024-02-26T12:12:17Z</time>
      </trkpt>
      <trkpt lat="47.22158" lon="6.01919">
        <ele>279.4</ele>
        <time>2024-02-26T12:12:26Z</time>
      </trkpt>
      <trkpt lat="47.22173" lon="6.01937">
        <ele>281.7</ele>
        <time>2024-02-26T12:12:36Z</time>
      </trkpt>
      <trkpt lat="47.22186" lon="6.01957">
        <ele>284.6</ele>
        <time>2024-02-26T12:12:47Z</time>
      </trkpt>
      <trkpt lat="47.222" lon="6.01977">
        <ele>287.7</ele>
        <time>2024-02-26T12:12:58Z</time>
      </trkpt>
      <trkpt lat="47.22212" lon="6.01997">
        <ele>290.6</ele>
        <time>2024-02-26T12:13:07Z</time>
      </trkpt>
      <trkpt lat="47.22226" lon="6.02017">
        <ele>293.8</ele>
        <time>2024-02-26T12:13:18Z</time>
      </trkpt>
      <trkpt lat="47.22239" lon="6.02037">
        <ele>297.1</ele>
        <time>2024-02-26T12:13:30Z</time>
      </trkpt>
      <trkpt lat="47.22254" lon="6.02053">
        <ele>300.2</ele>
        <time>2024-02-26T12:13:39Z</time>
      </trkpt>
      <trkpt lat="47.22265" lon="6.02077">
        <ele>303.6</ele>
        <time>2024-02-26T12:13:50Z</time>
      </trkpt>
      <trkpt lat="47.22275" lon="6.02102">
        <ele>307.4</ele>
        <time>2024-02-26T12:14:01Z</time>
      </trkpt>
      <trkpt lat="47.22285" lon="6.02126">
        <ele>310.8</ele>
        <time>2024-02-26T12:14:12Z</time>
      </trkpt>
      <trkpt lat="47.22291" lon="6.02151">
        <ele>314.1</ele>
        <time>2024-02-26T12:14:23Z</time>
      </trkpt>
      <trkpt lat="47.22298" lon="6.02176">
        <ele>317.7</ele>
        <time>2024-02-26T12:14:34Z</time>
      </trkpt>
      <trkpt lat="47.22308" lon="6.02199">
        <ele>321.2</ele>
        <time>2024-02-26T12:14:45Z</time>
      </trkpt>
      <trkpt lat="47.22317" lon="6.02223">
        <ele>324.5</ele>
        <time>2024-02-26T12:14:56Z</time>
      </trkpt>
      <trkpt lat="47.22326" lon="6.02247">
        <ele>327.4</ele>
        <time>2024-02-26T12:15:07Z</time>
      </trkpt>
      <trkpt lat="47.22328" lon="6.02252">
        <ele>327.9</ele>
        <time>2024-02-26T12:15:12Z</time>
      </trkpt>
      <trkpt lat="47.22337" lon="6.02279">
        <ele>329.4</ele>
        <time>2024-02-26T12:15:23Z</time>
      </trkpt>
      <trkpt lat="47.22347" lon="6.02305">
        <ele>329.7</ele>
        <time>2024-02-26T12:15:32Z</time>
      </trkpt>
      <trkpt lat="47.22354" lon="6.02333">
        <ele>329</ele>
        <time>2024-02-26T12:15:40Z</time>
      </trkpt>
      <trkpt lat="47.22356" lon="6.02359">
        <ele>327.1</ele>
        <time>2024-02-26T12:15:47Z</time>
      </trkpt>
      <trkpt lat="47.22359" lon="6.02386">
        <ele>323.5</ele>
        <time>2024-02-26T12:15:54Z</time>
      </trkpt>
      <trkpt lat="47.22361" lon="6.02412">
        <ele>319.1</ele>
        <time>2024-02-26T12:16:01Z</time>
      </trkpt>
      <trkpt lat="47.22362" lon="6.02438">
        <ele>315</ele>
        <time>2024-02-26T12:16:08Z</time>
      </trkpt>
      <trkpt lat="47.22359" lon="6.02466">
        <ele>310.3</ele>
        <time>2024-02-26T12:16:15Z</time>
      </trkpt>
      <trkpt lat="47.22359" lon="6.02493">
        <ele>305.7</ele>
        <time>2024-02-26T12:16:22Z</time>
      </trkpt>
      <trkpt lat="47.22359" lon="6.02523">
        <ele>300.6</ele>
        <time>2024-02-26T12:16:30Z</time>
      </trkpt>
      <trkpt lat="47.22361" lon="6.02551">
        <ele>295.5</ele>
        <time>2024-02-26T12:16:38Z</time>
      </trkpt>
      <trkpt lat="47.22366" lon="6.0258">
        <ele>290.8</ele>
        <time>2024-02-26T12:16:45Z</time>
      </trkpt>
      <trkpt lat="47.22365" lon="6.02608">
        <ele>286.9</ele>
        <time>2024-02-26T12:16:52Z</time>
      </trkpt>
      <trkpt lat="47.22362" lon="6.02638">
        <ele>282.7</ele>
        <time>2024-02-26T12:16:59Z</time>
      </trkpt>
      <trkpt lat="47.22361" lon="6.02665">
        <ele>278.8</ele>
        <time>2024-02-26T12:17:07Z</time>
      </trkpt>
      <trkpt lat="47.22363" lon="6.02692">
        <ele>275.2</ele>
        <time>2024-02-26T12:17:14Z</time>
      </trkpt>
      <trkpt lat="47.2236" lon="6.0272">
        <ele>271.4</ele>
        <time>2024-02-26T12:17:23Z</time>
      </trkpt>
      <trkpt lat="47.22358" lon="6.0275">
        <ele>267.2</ele>
        <time>2024-02-26T12:17:32Z</time>
      </trkpt>
      <trkpt lat="47.22355" lon="6.02776">
        <ele>263.2</ele>
        <time>2024-02-26T12:17:40Z</time>
      </trkpt>
      <trkpt lat="47.2236" lon="6.02801">
        <ele>258.7</ele>
        <time>2024-02-26T12:17:48Z</time>
      </trkpt>
      <trkpt lat="47.22358" lon="6.0282">
        <ele>254.8</ele>
        <time>2024-02-26T12:17:57Z</time>
      </trkpt>
      <trkpt lat="47.22358" lon="6.02824">
        <ele>253.9</ele>
        <time>2024-02-26T12:18:03Z</time>
      </trkpt>
      <trkpt lat="47.22358" lon="6.02824">
        <ele>253.8</ele>
        <time>2024-02-26T12:18:05Z</time>
      </trkpt>
      <trkpt lat="47.22359" lon="6.02827">
        <ele>252.9</ele>
        <time>2024-02-26T12:18:11Z</time>
      </trkpt>
      <trkpt lat="47.22358" lon="6.02831">
        <ele>252.1</ele>
        <time>2024-02-26T12:18:13Z</time>
      </trkpt>
      <trkpt lat="47.22356" lon="6.02845">
        <ele>248.1</ele>
        <time>2024-02-26T12:18:17Z</time>
      </trkpt>
      <trkpt lat="47.22359" lon="6.02866">
        <ele>240.5</ele>
        <time>2024-02-26T12:18:25Z</time>
      </trkpt>
      <trkpt lat="47.22372" lon="6.02885">
        <ele>240.4</ele>
        <time>2024-02-26T12:18:32Z</time>
      </trkpt>
      <trkpt lat="47.22386" lon="6.02902">
        <ele>240.4</ele>
        <time>2024-02-26T12:18:39Z</time>
      </trkpt>
      <trkpt lat="47.22398" lon="6.02928">
        <ele>240.2</ele>
        <time>2024-02-26T12:18:48Z</time>
      </trkpt>
      <trkpt lat="47.22408" lon="6.02953">
        <ele>240.2</ele>
        <time>2024-02-26T12:18:56Z</time>
      </trkpt>
      <trkpt lat="47.22416" lon="6.02979">
        <ele>240.2</ele>
        <time>2024-02-26T12:19:04Z</time>
      </trkpt>
      <trkpt lat="47.22426" lon="6.03002">
        <ele>240.3</ele>
        <time>2024-02-26T12:19:12Z</time>
      </trkpt>
      <trkpt lat="47.22441" lon="6.03021">
        <ele>240.3</ele>
        <time>2024-02-26T12:19:20Z</time>
      </trkpt>
      <trkpt lat="47.22458" lon="6.03035">
        <ele>240.3</ele>
        <time>2024-02-26T12:19:27Z</time>
      </trkpt>
      <trkpt lat="47.22474" lon="6.03048">
        <ele>240.2</ele>
        <time>2024-02-26T12:19:35Z</time>
      </trkpt>
      <trkpt lat="47.22491" lon="6.03058">
        <ele>240.2</ele>
        <time>2024-02-26T12:19:43Z</time>
      </trkpt>
      <trkpt lat="47.22507" lon="6.03069">
        <ele>240.2</ele>
        <time>2024-02-26T12:19:50Z</time>
      </trkpt>
      <trkpt lat="47.22525" lon="6.03082">
        <ele>240.3</ele>
        <time>2024-02-26T12:19:58Z</time>
      </trkpt>
      <trkpt lat="47.22543" lon="6.03094">
        <ele>240.3</ele>
        <time>2024-02-26T12:20:06Z</time>
      </trkpt>
      <trkpt lat="47.2256" lon="6.03106">
        <ele>240.4</ele>
        <time>2024-02-26T12:20:14Z</time>
      </trkpt>
      <trkpt lat="47.22576" lon="6.03123">
        <ele>240.4</ele>
        <time>2024-02-26T12:20:23Z</time>
      </trkpt>
      <trkpt lat="47.22593" lon="6.03133">
        <ele>240.5</ele>
        <time>2024-02-26T12:20:30Z</time>
      </trkpt>
      <trkpt lat="47.22612" lon="6.03142">
        <ele>240.5</ele>
        <time>2024-02-26T12:20:38Z</time>
      </trkpt>
      <trkpt lat="47.22632" lon="6.03148">
        <ele>240.7</ele>
        <time>2024-02-26T12:20:46Z</time>
      </trkpt>
      <trkpt lat="47.2265" lon="6.03149">
        <ele>240.8</ele>
        <time>2024-02-26T12:20:53Z</time>
      </trkpt>
      <trkpt lat="47.2267" lon="6.03145">
        <ele>240.8</ele>
        <time>2024-02-26T12:21:01Z</time>
      </trkpt>
      <trkpt lat="47.22688" lon="6.03136">
        <ele>240.9</ele>
        <time>2024-02-26T12:21:09Z</time>
      </trkpt>
      <trkpt lat="47.22707" lon="6.03128">
        <ele>240.9</ele>
        <time>2024-02-26T12:21:17Z</time>
      </trkpt>
      <trkpt lat="47.22724" lon="6.03118">
        <ele>241.2</ele>
        <time>2024-02-26T12:21:24Z</time>
      </trkpt>
      <trkpt lat="47.2274" lon="6.03101">
        <ele>241.6</ele>
        <time>2024-02-26T12:21:31Z</time>
      </trkpt>
      <trkpt lat="47.22756" lon="6.03083">
        <ele>241.7</ele>
        <time>2024-02-26T12:21:38Z</time>
      </trkpt>
      <trkpt lat="47.22772" lon="6.03066">
        <ele>241.5</ele>
        <time>2024-02-26T12:21:45Z</time>
      </trkpt>
      <trkpt lat="47.22786" lon="6.03046">
        <ele>241.4</ele>
        <time>2024-02-26T12:21:52Z</time>
      </trkpt>
      <trkpt lat="47.228" lon="6.03025">
        <ele>241.4</ele>
        <time>2024-02-26T12:22:00Z</time>
      </trkpt>
      <trkpt lat="47.22811" lon="6.03003">
        <ele>241.5</ele>
        <time>2024-02-26T12:22:07Z</time>
      </trkpt>
      <trkpt lat="47.22827" lon="6.02984">
        <ele>241.7</ele>
        <time>2024-02-26T12:22:15Z</time>
      </trkpt>
      <trkpt lat="47.2284" lon="6.02965">
        <ele>241.8</ele>
        <time>2024-02-26T12:22:22Z</time>
      </trkpt>
      <trkpt lat="47.22852" lon="6.02944">
        <ele>241.9</ele>
        <time>2024-02-26T12:22:29Z</time>
      </trkpt>
      <trkpt lat="47.22861" lon="6.02918">
        <ele>241.8</ele>
        <time>2024-02-26T12:22:36Z</time>
      </trkpt>
      <trkpt lat="47.22869" lon="6.02892">
        <ele>241.6</ele>
        <time>2024-02-26T12:22:43Z</time>
      </trkpt>
      <trkpt lat="47.22875" lon="6.02864">
        <ele>241.7</ele>
        <time>2024-02-26T12:22:50Z</time>
      </trkpt>
      <trkpt lat="47.22882" lon="6.02838">
        <ele>241.8</ele>
        <time>2024-02-26T12:22:57Z</time>
      </trkpt>
      <trkpt lat="47.22889" lon="6.0281">
        <ele>241.9</ele>
        <time>2024-02-26T12:23:05Z</time>
      </trkpt>
      <trkpt lat="47.22898" lon="6.02785">
        <ele>242.2</ele>
        <time>2024-02-26T12:23:12Z</time>
      </trkpt>
      <trkpt lat="47.22901" lon="6.02756">
        <ele>242.8</ele>
        <time>2024-02-26T12:23:20Z</time>
      </trkpt>
      <trkpt lat="47.22907" lon="6.02729">
        <ele>243.3</ele>
        <time>2024-02-26T12:23:27Z</time>
      </trkpt>
      <trkpt lat="47.22917" lon="6.02703">
        <ele>243.5</ele>
        <time>2024-02-26T12:23:35Z</time>
      </trkpt>
      <trkpt lat="47.22925" lon="6.02678">
        <ele>243.5</ele>
        <time>2024-02-26T12:23:42Z</time>
      </trkpt>
      <trkpt lat="47.22936" lon="6.02653">
        <ele>243.4</ele>
        <time>2024-02-26T12:23:49Z</time>
      </trkpt>
      <trkpt lat="47.22944" lon="6.02629">
        <ele>243.3</ele>
        <time>2024-02-26T12:23:55Z</time>
      </trkpt>
      <trkpt lat="47.2295" lon="6.02604">
        <ele>243.3</ele>
        <time>2024-02-26T12:24:02Z</time>
      </trkpt>
      <trkpt lat="47.22957" lon="6.02576">
        <ele>243.4</ele>
        <time>2024-02-26T12:24:10Z</time>
      </trkpt>
      <trkpt lat="47.22966" lon="6.0255">
        <ele>243.5</ele>
        <time>2024-02-26T12:24:17Z</time>
      </trkpt>
      <trkpt lat="47.2297" lon="6.02522">
        <ele>243.7</ele>
        <time>2024-02-26T12:24:24Z</time>
      </trkpt>
      <trkpt lat="47.22974" lon="6.02495">
        <ele>244</ele>
        <time>2024-02-26T12:24:31Z</time>
      </trkpt>
      <trkpt lat="47.22975" lon="6.02467">
        <ele>244.6</ele>
        <time>2024-02-26T12:24:38Z</time>
      </trkpt>
      <trkpt lat="47.22978" lon="6.02437">
        <ele>245.2</ele>
        <time>2024-02-26T12:24:46Z</time>
      </trkpt>
      <trkpt lat="47.22982" lon="6.02407">
        <ele>245.3</ele>
        <time>2024-02-26T12:24:54Z</time>
      </trkpt>
      <trkpt lat="47.2299" lon="6.02383">
        <ele>245.2</ele>
        <time>2024-02-26T12:25:01Z</time>
      </trkpt>
      <trkpt lat="47.22996" lon="6.02355">
        <ele>245.3</ele>
        <time>2024-02-26T12:25:09Z</time>
      </trkpt>
      <trkpt lat="47.23001" lon="6.02325">
        <ele>245.4</ele>
        <time>2024-02-26T12:25:17Z</time>
      </trkpt>
      <trkpt lat="47.23003" lon="6.02296">
        <ele>245.5</ele>
        <time>2024-02-26T12:25:25Z</time>
      </trkpt>
      <trkpt lat="47.23006" lon="6.02267">
        <ele>245.5</ele>
        <time>2024-02-26T12:25:33Z</time>
      </trkpt>
      <trkpt lat="47.2301" lon="6.0224">
        <ele>245.6</ele>
        <time>2024-02-26T12:25:41Z</time>
      </trkpt>
      <trkpt lat="47.23007" lon="6.02226">
        <ele>245.7</ele>
        <time>2024-02-26T12:25:47Z</time>
      </trkpt>
      <trkpt lat="47.23005" lon="6.02226">
        <ele>245.7</ele>
        <time>2024-02-26T12:25:49Z</time>
      </trkpt>
      <trkpt lat="47.23005" lon="6.02226">
        <ele>245.7</ele>
        <time>2024-02-26T12:25:54Z</time>
      </trkpt>
      <trkpt lat="47.23005" lon="6.02226">
        <ele>245.7</ele>
        <time>2024-02-26T12:25:56Z</time>
      </trkpt>
      <trkpt lat="47.23005" lon="6.02226">
        <ele>245.7</ele>
        <time>2024-02-26T12:26:00Z</time>
      </trkpt>
      <trkpt lat="47.23005" lon="6.02226">
        <ele>245.7</ele>
        <time>2024-02-26T12:26:02Z</time>
      </trkpt>
      <trkpt lat="47.23004" lon="6.02226">
        <ele>245.7</ele>
        <time>2024-02-26T12:26:04Z</time>
      </trkpt>
      <trkpt lat="47.23004" lon="6.02226">
        <ele>245.7</ele>
        <time>2024-02-26T12:26:06Z</time>
      </trkpt>
      <trkpt lat="47.23004" lon="6.02226">
        <ele>245.7</ele>
        <time>2024-02-26T12:26:08Z</time>
      </trkpt>
      <trkpt lat="47.23004" lon="6.02226">
        <ele>245.7</ele>
        <time>2024-02-26T12:26:11Z</time>
      </trkpt>
      <trkpt lat="47.23003" lon="6.02227">
        <ele>246.5</ele>
        <time>2024-02-26T12:26:15Z</time>
      </trkpt>
      <trkpt lat="47.22997" lon="6.02233">
        <ele>250.5</ele>
        <time>2024-02-26T12:26:19Z</time>
      </trkpt>
      <trkpt lat="47.22993" lon="6.02239">
        <ele>253.8</ele>
        <time>2024-02-26T12:26:22Z</time>
      </trkpt>
      <trkpt lat="47.22989" lon="6.02244">
        <ele>255.5</ele>
        <time>2024-02-26T12:26:25Z</time>
      </trkpt>
      <trkpt lat="47.22986" lon="6.02251">
        <ele>257</ele>
        <time>2024-02-26T12:26:29Z</time>
      </trkpt>
      <trkpt lat="47.22983" lon="6.02252">
        <ele>257.6</ele>
        <time>2024-02-26T12:26:31Z</time>
      </trkpt>
      <trkpt lat="47.22982" lon="6.02255">
        <ele>258.2</ele>
        <time>2024-02-26T12:26:33Z</time>
      </trkpt>
      <trkpt lat="47.2298" lon="6.02272">
        <ele>260.3</ele>
        <time>2024-02-26T12:26:39Z</time>
      </trkpt>
      <trkpt lat="47.2298" lon="6.02286">
        <ele>261.7</ele>
        <time>2024-02-26T12:26:45Z</time>
      </trkpt>
      <trkpt lat="47.2297" lon="6.02306">
        <ele>264.8</ele>
        <time>2024-02-26T12:26:58Z</time>
      </trkpt>
      <trkpt lat="47.22971" lon="6.02311">
        <ele>265.5</ele>
        <time>2024-02-26T12:27:00Z</time>
      </trkpt>
      <trkpt lat="47.22971" lon="6.02329">
        <ele>267.9</ele>
        <time>2024-02-26T12:27:11Z</time>
      </trkpt>
      <trkpt lat="47.22965" lon="6.02355">
        <ele>271.3</ele>
        <time>2024-02-26T12:27:25Z</time>
      </trkpt>
      <trkpt lat="47.22954" lon="6.02376">
        <ele>274.8</ele>
        <time>2024-02-26T12:27:37Z</time>
      </trkpt>
      <trkpt lat="47.22945" lon="6.02398">
        <ele>278.7</ele>
        <time>2024-02-26T12:27:52Z</time>
      </trkpt>
      <trkpt lat="47.22945" lon="6.02395">
        <ele>279.2</ele>
        <time>2024-02-26T12:27:55Z</time>
      </trkpt>
      <trkpt lat="47.22943" lon="6.02375">
        <ele>282.2</ele>
        <time>2024-02-26T12:28:06Z</time>
      </trkpt>
      <trkpt lat="47.22936" lon="6.02349">
        <ele>285.7</ele>
        <time>2024-02-26T12:28:19Z</time>
      </trkpt>
      <trkpt lat="47.22936" lon="6.02335">
        <ele>287.3</ele>
        <time>2024-02-26T12:28:26Z</time>
      </trkpt>
      <trkpt lat="47.2293" lon="6.02307">
        <ele>290.2</ele>
        <time>2024-02-26T12:28:39Z</time>
      </trkpt>
      <trkpt lat="47.22924" lon="6.02281">
        <ele>292.7</ele>
        <time>2024-02-26T12:28:49Z</time>
      </trkpt>
      <trkpt lat="47.22916" lon="6.02256">
        <ele>295.2</ele>
        <time>2024-02-26T12:29:01Z</time>
      </trkpt>
      <trkpt lat="47.22916" lon="6.02254">
        <ele>295.5</ele>
        <time>2024-02-26T12:29:02Z</time>
      </trkpt>
      <trkpt lat="47.22914" lon="6.02242">
        <ele>296.8</ele>
        <time>2024-02-26T12:29:09Z</time>
      </trkpt>
      <trkpt lat="47.22907" lon="6.02222">
        <ele>299.4</ele>
        <time>2024-02-26T12:29:19Z</time>
      </trkpt>
      <trkpt lat="47.22899" lon="6.02197">
        <ele>302.5</ele>
        <time>2024-02-26T12:29:31Z</time>
      </trkpt>
      <trkpt lat="47.22897" lon="6.02184">
        <ele>304</ele>
        <time>2024-02-26T12:29:38Z</time>
      </trkpt>
      <trkpt lat="47.22898" lon="6.02168">
        <ele>305.8</ele>
        <time>2024-02-26T12:29:44Z</time>
      </trkpt>
      <trkpt lat="47.2289" lon="6.02144">
        <ele>308.7</ele>
        <time>2024-02-26T12:29:55Z</time>
      </trkpt>
      <trkpt lat="47.2289" lon="6.02124">
        <ele>314.5</ele>
        <time>2024-02-26T12:30:04Z</time>
      </trkpt>
      <trkpt lat="47.22887" lon="6.0212">
        <ele>314.5</ele>
        <time>2024-02-26T12:30:06Z</time>
      </trkpt>
      <trkpt lat="47.22884" lon="6.02118">
        <ele>314.5</ele>
        <time>2024-02-26T12:30:08Z</time>
      </trkpt>
      <trkpt lat="47.22879" lon="6.02124">
        <ele>316.3</ele>
        <time>2024-02-26T12:30:16Z</time>
      </trkpt>
      <trkpt lat="47.22879" lon="6.02125">
        <ele>316.7</ele>
        <time>2024-02-26T12:30:19Z</time>
      </trkpt>
      <trkpt lat="47.22877" lon="6.02129">
        <ele>317.8</ele>
        <time>2024-02-26T12:30:23Z</time>
      </trkpt>
      <trkpt lat="47.22874" lon="6.02132">
        <ele>319.2</ele>
        <time>2024-02-26T12:30:26Z</time>
      </trkpt>
      <trkpt lat="47.22872" lon="6.02144">
        <ele>325.7</ele>
        <time>2024-02-26T12:30:35Z</time>
      </trkpt>
      <trkpt lat="47.22862" lon="6.02154">
        <ele>330.6</ele>
        <time>2024-02-26T12:30:47Z</time>
      </trkpt>
      <trkpt lat="47.22857" lon="6.02158">
        <ele>332.9</ele>
        <time>2024-02-26T12:30:52Z</time>
      </trkpt>
      <trkpt lat="47.22846" lon="6.02168">
        <ele>338</ele>
        <time>2024-02-26T12:31:01Z</time>
      </trkpt>
      <trkpt lat="47.22846" lon="6.02174">
        <ele>339.5</ele>
        <time>2024-02-26T12:31:05Z</time>
      </trkpt>
      <trkpt lat="47.22844" lon="6.02179">
        <ele>340.8</ele>
        <time>2024-02-26T12:31:09Z</time>
      </trkpt>
      <trkpt lat="47.22845" lon="6.02183">
        <ele>341.9</ele>
        <time>2024-02-26T12:31:12Z</time>
      </trkpt>
      <trkpt lat="47.22846" lon="6.02193">
        <ele>344.1</ele>
        <time>2024-02-26T12:31:20Z</time>
      </trkpt>
      <trkpt lat="47.22845" lon="6.02196">
        <ele>344.7</ele>
        <time>2024-02-26T12:31:22Z</time>
      </trkpt>
      <trkpt lat="47.22843" lon="6.02201">
        <ele>345.9</ele>
        <time>2024-02-26T12:31:26Z</time>
      </trkpt>
      <trkpt lat="47.22838" lon="6.02215">
        <ele>348.9</ele>
        <time>2024-02-26T12:31:36Z</time>
      </trkpt>
      <trkpt lat="47.22839" lon="6.0224">
        <ele>352.5</ele>
        <time>2024-02-26T12:31:49Z</time>
      </trkpt>
      <trkpt lat="47.22838" lon="6.02267">
        <ele>355.9</ele>
        <time>2024-02-26T12:32:03Z</time>
      </trkpt>
      <trkpt lat="47.22836" lon="6.02291">
        <ele>359.7</ele>
        <time>2024-02-26T12:32:15Z</time>
      </trkpt>
      <trkpt lat="47.22836" lon="6.02295">
        <ele>360.3</ele>
        <time>2024-02-26T12:32:17Z</time>
      </trkpt>
      <trkpt lat="47.22835" lon="6.02322">
        <ele>364.4</ele>
        <time>2024-02-26T12:32:31Z</time>
      </trkpt>
      <trkpt lat="47.22834" lon="6.02324">
        <ele>364.7</ele>
        <time>2024-02-26T12:32:32Z</time>
      </trkpt>
      <trkpt lat="47.22829" lon="6.02332">
        <ele>366.1</ele>
        <time>2024-02-26T12:32:37Z</time>
      </trkpt>
      <trkpt lat="47.22826" lon="6.02359">
        <ele>369.4</ele>
        <time>2024-02-26T12:32:48Z</time>
      </trkpt>
      <trkpt lat="47.2283" lon="6.02371">
        <ele>370</ele>
        <time>2024-02-26T12:32:56Z</time>
      </trkpt>
      <trkpt lat="47.2283" lon="6.02369">
        <ele>370.4</ele>
        <time>2024-02-26T12:32:58Z</time>
      </trkpt>
      <trkpt lat="47.22829" lon="6.02364">
        <ele>371.3</ele>
        <time>2024-02-26T12:33:02Z</time>
      </trkpt>
      <trkpt lat="47.22829" lon="6.02359">
        <ele>372.2</ele>
        <time>2024-02-26T12:33:06Z</time>
      </trkpt>
      <trkpt lat="47.22827" lon="6.02357">
        <ele>372.7</ele>
        <time>2024-02-26T12:33:08Z</time>
      </trkpt>
      <trkpt lat="47.22826" lon="6.02356">
        <ele>373.1</ele>
        <time>2024-02-26T12:33:11Z</time>
      </trkpt>
      <trkpt lat="47.22825" lon="6.02353">
        <ele>373.7</ele>
        <time>2024-02-26T12:33:15Z</time>
      </trkpt>
      <trkpt lat="47.2282" lon="6.02344">
        <ele>375.6</ele>
        <time>2024-02-26T12:33:24Z</time>
      </trkpt>
      <trkpt lat="47.2282" lon="6.02339">
        <ele>376.6</ele>
        <time>2024-02-26T12:33:28Z</time>
      </trkpt>
      <trkpt lat="47.22808" lon="6.02317">
        <ele>381</ele>
        <time>2024-02-26T12:33:43Z</time>
      </trkpt>
      <trkpt lat="47.22797" lon="6.02295">
        <ele>385</ele>
        <time>2024-02-26T12:33:55Z</time>
      </trkpt>
      <trkpt lat="47.22796" lon="6.02294">
        <ele>385.3</ele>
        <time>2024-02-26T12:33:56Z</time>
      </trkpt>
      <trkpt lat="47.22785" lon="6.02273">
        <ele>389.3</ele>
        <time>2024-02-26T12:34:11Z</time>
      </trkpt>
      <trkpt lat="47.22785" lon="6.02271">
        <ele>389.6</ele>
        <time>2024-02-26T12:34:13Z</time>
      </trkpt>
      <trkpt lat="47.22781" lon="6.02274">
        <ele>393.3</ele>
        <time>2024-02-26T12:34:19Z</time>
      </trkpt>
      <trkpt lat="47.22782" lon="6.02276">
        <ele>393.6</ele>
        <time>2024-02-26T12:34:21Z</time>
      </trkpt>
      <trkpt lat="47.22779" lon="6.02302">
        <ele>398.3</ele>
        <time>2024-02-26T12:34:39Z</time>
      </trkpt>
      <trkpt lat="47.22779" lon="6.02304">
        <ele>398.7</ele>
        <time>2024-02-26T12:34:41Z</time>
      </trkpt>
      <trkpt lat="47.22777" lon="6.02319">
        <ele>401.4</ele>
        <time>2024-02-26T12:34:51Z</time>
      </trkpt>
      <trkpt lat="47.22777" lon="6.02322">
        <ele>401.9</ele>
        <time>2024-02-26T12:34:53Z</time>
      </trkpt>
      <trkpt lat="47.22776" lon="6.02333">
        <ele>403.6</ele>
        <time>2024-02-26T12:35:01Z</time>
      </trkpt>
      <trkpt lat="47.22774" lon="6.02337">
        <ele>404.9</ele>
        <time>2024-02-26T12:35:05Z</time>
      </trkpt>
      <trkpt lat="47.22773" lon="6.02363">
        <ele>404.8</ele>
        <time>2024-02-26T12:35:15Z</time>
      </trkpt>
      <trkpt lat="47.22778" lon="6.02389">
        <ele>403.9</ele>
        <time>2024-02-26T12:35:23Z</time>
      </trkpt>
      <trkpt lat="47.22784" lon="6.02414">
        <ele>403.3</ele>
        <time>2024-02-26T12:35:31Z</time>
      </trkpt>
      <trkpt lat="47.22791" lon="6.02442">
        <ele>402.7</ele>
        <time>2024-02-26T12:35:39Z</time>
      </trkpt>
      <trkpt lat="47.22798" lon="6.0246">
        <ele>402.6</ele>
        <time>2024-02-26T12:35:47Z</time>
      </trkpt>
      <trkpt lat="47.22792" lon="6.02463">
        <ele>402.6</ele>
        <time>2024-02-26T12:39:09Z</time>
      </trkpt>
      <trkpt lat="47.22791" lon="6.02463">
        <ele>402.6</ele>
        <time>2024-02-26T12:39:10Z</time>
      </trkpt>
      <trkpt lat="47.22773" lon="6.02464">
        <ele>402.6</ele>
        <time>2024-02-26T12:39:25Z</time>
      </trkpt>
      <trkpt lat="47.22756" lon="6.02462">
        <ele>403.5</ele>
        <time>2024-02-26T12:39:37Z</time>
      </trkpt>
      <trkpt lat="47.22754" lon="6.02462">
        <ele>404</ele>
        <time>2024-02-26T12:39:39Z</time>
      </trkpt>
      <trkpt lat="47.22751" lon="6.02462">
        <ele>404.6</ele>
        <time>2024-02-26T12:39:42Z</time>
      </trkpt>
      <trkpt lat="47.22747" lon="6.02462">
        <ele>405.7</ele>
        <time>2024-02-26T12:39:46Z</time>
      </trkpt>
      <trkpt lat="47.22744" lon="6.02463">
        <ele>406.2</ele>
        <time>2024-02-26T12:39:49Z</time>
      </trkpt>
      <trkpt lat="47.22725" lon="6.0246">
        <ele>408.8</ele>
        <time>2024-02-26T12:40:00Z</time>
      </trkpt>
      <trkpt lat="47.22707" lon="6.02458">
        <ele>409.8</ele>
        <time>2024-02-26T12:40:09Z</time>
      </trkpt>
      <trkpt lat="47.22689" lon="6.02461">
        <ele>410</ele>
        <time>2024-02-26T12:40:16Z</time>
      </trkpt>
      <trkpt lat="47.22672" lon="6.02473">
        <ele>408.9</ele>
        <time>2024-02-26T12:40:24Z</time>
      </trkpt>
      <trkpt lat="47.22653" lon="6.02481">
        <ele>407.4</ele>
        <time>2024-02-26T12:40:32Z</time>
      </trkpt>
      <trkpt lat="47.22634" lon="6.02481">
        <ele>405.8</ele>
        <time>2024-02-26T12:40:39Z</time>
      </trkpt>
      <trkpt lat="47.22616" lon="6.02469">
        <ele>404.2</ele>
        <time>2024-02-26T12:40:46Z</time>
      </trkpt>
      <trkpt lat="47.226" lon="6.02449">
        <ele>402.6</ele>
        <time>2024-02-26T12:40:53Z</time>
      </trkpt>
      <trkpt lat="47.22588" lon="6.02427">
        <ele>401.2</ele>
        <time>2024-02-26T12:41:00Z</time>
      </trkpt>
      <trkpt lat="47.22575" lon="6.02403">
        <ele>399.2</ele>
        <time>2024-02-26T12:41:07Z</time>
      </trkpt>
      <trkpt lat="47.22565" lon="6.02376">
        <ele>397.1</ele>
        <time>2024-02-26T12:41:14Z</time>
      </trkpt>
      <trkpt lat="47.22556" lon="6.02349">
        <ele>395.1</ele>
        <time>2024-02-26T12:41:21Z</time>
      </trkpt>
      <trkpt lat="47.22549" lon="6.02321">
        <ele>393.1</ele>
        <time>2024-02-26T12:41:28Z</time>
      </trkpt>
      <trkpt lat="47.22545" lon="6.02291">
        <ele>391</ele>
        <time>2024-02-26T12:41:35Z</time>
      </trkpt>
      <trkpt lat="47.22538" lon="6.02262">
        <ele>389</ele>
        <time>2024-02-26T12:41:42Z</time>
      </trkpt>
      <trkpt lat="47.22533" lon="6.02233">
        <ele>387.1</ele>
        <time>2024-02-26T12:41:49Z</time>
      </trkpt>
      <trkpt lat="47.22531" lon="6.02204">
        <ele>385.2</ele>
        <time>2024-02-26T12:41:56Z</time>
      </trkpt>
      <trkpt lat="47.2253" lon="6.02174">
        <ele>383.2</ele>
        <time>2024-02-26T12:42:03Z</time>
      </trkpt>
      <trkpt lat="47.2253" lon="6.02146">
        <ele>381.4</ele>
        <time>2024-02-26T12:42:10Z</time>
      </trkpt>
      <trkpt lat="47.22527" lon="6.02116">
        <ele>379.4</ele>
        <time>2024-02-26T12:42:17Z</time>
      </trkpt>
      <trkpt lat="47.22522" lon="6.02088">
        <ele>377.6</ele>
        <time>2024-02-26T12:42:23Z</time>
      </trkpt>
      <trkpt lat="47.22516" lon="6.0206">
        <ele>375.9</ele>
        <time>2024-02-26T12:42:30Z</time>
      </trkpt>
      <trkpt lat="47.22508" lon="6.02032">
        <ele>374.7</ele>
        <time>2024-02-26T12:42:37Z</time>
      </trkpt>
      <trkpt lat="47.22502" lon="6.02006">
        <ele>373.1</ele>
        <time>2024-02-26T12:42:43Z</time>
      </trkpt>
      <trkpt lat="47.22496" lon="6.0198">
        <ele>371.3</ele>
        <time>2024-02-26T12:42:49Z</time>
      </trkpt>
      <trkpt lat="47.22485" lon="6.01958">
        <ele>369.3</ele>
        <time>2024-02-26T12:42:55Z</time>
      </trkpt>
      <trkpt lat="47.22474" lon="6.01935">
        <ele>367.3</ele>
        <time>2024-02-26T12:43:01Z</time>
      </trkpt>
      <trkpt lat="47.2247" lon="6.01908">
        <ele>365.3</ele>
        <time>2024-02-26T12:43:07Z</time>
      </trkpt>
      <trkpt lat="47.2248" lon="6.01885">
        <ele>363.1</ele>
        <time>2024-02-26T12:43:13Z</time>
      </trkpt>
      <trkpt lat="47.22494" lon="6.01868">
        <ele>361.4</ele>
        <time>2024-02-26T12:43:19Z</time>
      </trkpt>
      <trkpt lat="47.22506" lon="6.01848">
        <ele>359.8</ele>
        <time>2024-02-26T12:43:25Z</time>
      </trkpt>
      <trkpt lat="47.2252" lon="6.01827">
        <ele>358.1</ele>
        <time>2024-02-26T12:43:32Z</time>
      </trkpt>
      <trkpt lat="47.22536" lon="6.0181">
        <ele>356.2</ele>
        <time>2024-02-26T12:43:39Z</time>
      </trkpt>
      <trkpt lat="47.22549" lon="6.01787">
        <ele>354.2</ele>
        <time>2024-02-26T12:43:46Z</time>
      </trkpt>
      <trkpt lat="47.22551" lon="6.01759">
        <ele>352.2</ele>
        <time>2024-02-26T12:43:53Z</time>
      </trkpt>
      <trkpt lat="47.22552" lon="6.0173">
        <ele>350.2</ele>
        <time>2024-02-26T12:44:00Z</time>
      </trkpt>
      <trkpt lat="47.22567" lon="6.0171">
        <ele>348.1</ele>
        <time>2024-02-26T12:44:07Z</time>
      </trkpt>
      <trkpt lat="47.22584" lon="6.01699">
        <ele>346.9</ele>
        <time>2024-02-26T12:44:14Z</time>
      </trkpt>
      <trkpt lat="47.22603" lon="6.01692">
        <ele>346.2</ele>
        <time>2024-02-26T12:44:21Z</time>
      </trkpt>
      <trkpt lat="47.22622" lon="6.01686">
        <ele>344.9</ele>
        <time>2024-02-26T12:44:28Z</time>
      </trkpt>
      <trkpt lat="47.22642" lon="6.01681">
        <ele>343.7</ele>
        <time>2024-02-26T12:44:35Z</time>
      </trkpt>
      <trkpt lat="47.22661" lon="6.01677">
        <ele>342.7</ele>
        <time>2024-02-26T12:44:43Z</time>
      </trkpt>
      <trkpt lat="47.22679" lon="6.01673">
        <ele>341.9</ele>
        <time>2024-02-26T12:44:50Z</time>
      </trkpt>
      <trkpt lat="47.22697" lon="6.01671">
        <ele>340.9</ele>
        <time>2024-02-26T12:44:57Z</time>
      </trkpt>
      <trkpt lat="47.22715" lon="6.01669">
        <ele>340.4</ele>
        <time>2024-02-26T12:45:04Z</time>
      </trkpt>
      <trkpt lat="47.22721" lon="6.01644">
        <ele>340.2</ele>
        <time>2024-02-26T12:45:11Z</time>
      </trkpt>
      <trkpt lat="47.22719" lon="6.01617">
        <ele>340.7</ele>
        <time>2024-02-26T12:45:18Z</time>
      </trkpt>
      <trkpt lat="47.22725" lon="6.01589">
        <ele>341.7</ele>
        <time>2024-02-26T12:45:26Z</time>
      </trkpt>
      <trkpt lat="47.2274" lon="6.01574">
        <ele>342.3</ele>
        <time>2024-02-26T12:45:34Z</time>
      </trkpt>
      <trkpt lat="47.22758" lon="6.0156">
        <ele>343.2</ele>
        <time>2024-02-26T12:45:42Z</time>
      </trkpt>
      <trkpt lat="47.22775" lon="6.01546">
        <ele>344.4</ele>
        <time>2024-02-26T12:45:50Z</time>
      </trkpt>
      <trkpt lat="47.22792" lon="6.01532">
        <ele>345.4</ele>
        <time>2024-02-26T12:45:58Z</time>
      </trkpt>
      <trkpt lat="47.22804" lon="6.01511">
        <ele>346.5</ele>
        <time>2024-02-26T12:46:07Z</time>
      </trkpt>
      <trkpt lat="47.2281" lon="6.01483">
        <ele>348.2</ele>
        <time>2024-02-26T12:46:16Z</time>
      </trkpt>
      <trkpt lat="47.22815" lon="6.01455">
        <ele>349.9</ele>
        <time>2024-02-26T12:46:24Z</time>
      </trkpt>
      <trkpt lat="47.22815" lon="6.01428">
        <ele>351</ele>
        <time>2024-02-26T12:46:32Z</time>
      </trkpt>
      <trkpt lat="47.22818" lon="6.014">
        <ele>351.8</ele>
        <time>2024-02-26T12:46:40Z</time>
      </trkpt>
      <trkpt lat="47.22814" lon="6.01373">
        <ele>352.2</ele>
        <time>2024-02-26T12:46:48Z</time>
      </trkpt>
      <trkpt lat="47.22807" lon="6.01344">
        <ele>352.4</ele>
        <time>2024-02-26T12:46:56Z</time>
      </trkpt>
      <trkpt lat="47.22799" lon="6.01319">
        <ele>352.5</ele>
        <time>2024-02-26T12:47:03Z</time>
      </trkpt>
      <trkpt lat="47.22791" lon="6.01294">
        <ele>351.5</ele>
        <time>2024-02-26T12:47:10Z</time>
      </trkpt>
      <trkpt lat="47.22787" lon="6.01266">
        <ele>349.5</ele>
        <time>2024-02-26T12:47:17Z</time>
      </trkpt>
      <trkpt lat="47.22779" lon="6.01239">
        <ele>347.2</ele>
        <time>2024-02-26T12:47:24Z</time>
      </trkpt>
      <trkpt lat="47.22771" lon="6.01214">
        <ele>344.4</ele>
        <time>2024-02-26T12:47:31Z</time>
      </trkpt>
      <trkpt lat="47.22762" lon="6.01187">
        <ele>341.4</ele>
        <time>2024-02-26T12:47:38Z</time>
      </trkpt>
      <trkpt lat="47.22758" lon="6.01161">
        <ele>338.6</ele>
        <time>2024-02-26T12:47:45Z</time>
      </trkpt>
      <trkpt lat="47.22754" lon="6.01133">
        <ele>335.6</ele>
        <time>2024-02-26T12:47:52Z</time>
      </trkpt>
      <trkpt lat="47.22754" lon="6.01106">
        <ele>332.3</ele>
        <time>2024-02-26T12:47:59Z</time>
      </trkpt>
      <trkpt lat="47.22752" lon="6.01076">
        <ele>328.6</ele>
        <time>2024-02-26T12:48:06Z</time>
      </trkpt>
      <trkpt lat="47.22748" lon="6.01048">
        <ele>325.1</ele>
        <time>2024-02-26T12:48:13Z</time>
      </trkpt>
      <trkpt lat="47.22745" lon="6.01022">
        <ele>321.8</ele>
        <time>2024-02-26T12:48:20Z</time>
      </trkpt>
      <trkpt lat="47.22738" lon="6.00998">
        <ele>318.1</ele>
        <time>2024-02-26T12:48:26Z</time>
      </trkpt>
      <trkpt lat="47.22732" lon="6.00968">
        <ele>313.8</ele>
        <time>2024-02-26T12:48:33Z</time>
      </trkpt>
      <trkpt lat="47.22729" lon="6.0094">
        <ele>310.2</ele>
        <time>2024-02-26T12:48:39Z</time>
      </trkpt>
      <trkpt lat="47.2272" lon="6.00913">
        <ele>307.3</ele>
        <time>2024-02-26T12:48:46Z</time>
      </trkpt>
      <trkpt lat="47.22706" lon="6.00892">
        <ele>305.3</ele>
        <time>2024-02-26T12:48:53Z</time>
      </trkpt>
      <trkpt lat="47.227" lon="6.00864">
        <ele>302.4</ele>
        <time>2024-02-26T12:49:01Z</time>
      </trkpt>
      <trkpt lat="47.22697" lon="6.00837">
        <ele>299.6</ele>
        <time>2024-02-26T12:49:09Z</time>
      </trkpt>
      <trkpt lat="47.22696" lon="6.00808">
        <ele>295.5</ele>
        <time>2024-02-26T12:49:17Z</time>
      </trkpt>
      <trkpt lat="47.22696" lon="6.00806">
        <ele>295.4</ele>
        <time>2024-02-26T12:49:18Z</time>
      </trkpt>
      <trkpt lat="47.22712" lon="6.00795">
        <ele>293.8</ele>
        <time>2024-02-26T12:49:27Z</time>
      </trkpt>
      <trkpt lat="47.22715" lon="6.00793">
        <ele>293.5</ele>
        <time>2024-02-26T12:49:29Z</time>
      </trkpt>
      <trkpt lat="47.22716" lon="6.00787">
        <ele>293.6</ele>
        <time>2024-02-26T12:49:31Z</time>
      </trkpt>
      <trkpt lat="47.22716" lon="6.00782">
        <ele>293.6</ele>
        <time>2024-02-26T12:49:33Z</time>
      </trkpt>
      <trkpt lat="47.22701" lon="6.00762">
        <ele>294.2</ele>
        <time>2024-02-26T12:49:42Z</time>
      </trkpt>
      <trkpt lat="47.22687" lon="6.00742">
        <ele>294.5</ele>
        <time>2024-02-26T12:49:50Z</time>
      </trkpt>
      <trkpt lat="47.22672" lon="6.00722">
        <ele>294.6</ele>
        <time>2024-02-26T12:49:58Z</time>
      </trkpt>
      <trkpt lat="47.2266" lon="6.00701">
        <ele>294.6</ele>
        <time>2024-02-26T12:50:06Z</time>
      </trkpt>
      <trkpt lat="47.22648" lon="6.00681">
        <ele>294.5</ele>
        <time>2024-02-26T12:50:13Z</time>
      </trkpt>
      <trkpt lat="47.22637" lon="6.00657">
        <ele>294.6</ele>
        <time>2024-02-26T12:50:21Z</time>
      </trkpt>
      <trkpt lat="47.2263" lon="6.00633">
        <ele>295.4</ele>
        <time>2024-02-26T12:50:29Z</time>
      </trkpt>
      <trkpt lat="47.22621" lon="6.00608">
        <ele>296.7</ele>
        <time>2024-02-26T12:50:37Z</time>
      </trkpt>
      <trkpt lat="47.22615" lon="6.00582">
        <ele>297.5</ele>
        <time>2024-02-26T12:50:45Z</time>
      </trkpt>
      <trkpt lat="47.22611" lon="6.00555">
        <ele>297.4</ele>
        <time>2024-02-26T12:50:53Z</time>
      </trkpt>
      <trkpt lat="47.2261" lon="6.00528">
        <ele>296.7</ele>
        <time>2024-02-26T12:51:00Z</time>
      </trkpt>
      <trkpt lat="47.22611" lon="6.005">
        <ele>296</ele>
        <time>2024-02-26T12:51:07Z</time>
      </trkpt>
      <trkpt lat="47.22612" lon="6.0047">
        <ele>295.6</ele>
        <time>2024-02-26T12:51:15Z</time>
      </trkpt>
      <trkpt lat="47.22615" lon="6.00444">
        <ele>295.1</ele>
        <time>2024-02-26T12:51:22Z</time>
      </trkpt>
      <trkpt lat="47.22615" lon="6.00415">
        <ele>294.5</ele>
        <time>2024-02-26T12:51:29Z</time>
      </trkpt>
      <trkpt lat="47.22612" lon="6.00386">
        <ele>293.9</ele>
        <time>2024-02-26T12:51:37Z</time>
      </trkpt>
      <trkpt lat="47.2261" lon="6.00359">
        <ele>293.1</ele>
        <time>2024-02-26T12:51:44Z</time>
      </trkpt>
      <trkpt lat="47.22611" lon="6.00332">
        <ele>292.3</ele>
        <time>2024-02-26T12:51:51Z</time>
      </trkpt>
      <trkpt lat="47.22613" lon="6.00305">
        <ele>292</ele>
        <time>2024-02-26T12:51:58Z</time>
      </trkpt>
      <trkpt lat="47.22615" lon="6.00278">
        <ele>292</ele>
        <time>2024-02-26T12:52:05Z</time>
      </trkpt>
      <trkpt lat="47.22612" lon="6.00248">
        <ele>292.6</ele>
        <time>2024-02-26T12:52:13Z</time>
      </trkpt>
      <trkpt lat="47.22611" lon="6.00219">
        <ele>293.4</ele>
        <time>2024-02-26T12:52:21Z</time>
      </trkpt>
      <trkpt lat="47.22612" lon="6.00189">
        <ele>294.1</ele>
        <time>2024-02-26T12:52:29Z</time>
      </trkpt>
      <trkpt lat="47.2261" lon="6.00162">
        <ele>294.2</ele>
        <time>2024-02-26T12:52:37Z</time>
      </trkpt>
      <trkpt lat="47.22608" lon="6.00132">
        <ele>293.8</ele>
        <time>2024-02-26T12:52:45Z</time>
      </trkpt>
      <trkpt lat="47.22606" lon="6.00103">
        <ele>293.4</ele>
        <time>2024-02-26T12:52:52Z</time>
      </trkpt>
      <trkpt lat="47.22606" lon="6.00075">
        <ele>293.4</ele>
        <time>2024-02-26T12:53:00Z</time>
      </trkpt>
      <trkpt lat="47.22603" lon="6.00046">
        <ele>293.3</ele>
        <time>2024-02-26T12:53:09Z</time>
      </trkpt>
      <trkpt lat="47.22596" lon="6.00019">
        <ele>293</ele>
        <time>2024-02-26T12:53:17Z</time>
      </trkpt>
      <trkpt lat="47.2259" lon="5.99994">
        <ele>292.8</ele>
        <time>2024-02-26T12:53:25Z</time>
      </trkpt>
      <trkpt lat="47.22586" lon="5.99965">
        <ele>292.1</ele>
        <time>2024-02-26T12:53:32Z</time>
      </trkpt>
      <trkpt lat="47.22582" lon="5.99935">
        <ele>290.6</ele>
        <time>2024-02-26T12:53:40Z</time>
      </trkpt>
      <trkpt lat="47.22582" lon="5.99909">
        <ele>288.8</ele>
        <time>2024-02-26T12:53:47Z</time>
      </trkpt>
      <trkpt lat="47.22584" lon="5.99879">
        <ele>287</ele>
        <time>2024-02-26T12:53:55Z</time>
      </trkpt>
      <trkpt lat="47.22585" lon="5.99853">
        <ele>285.7</ele>
        <time>2024-02-26T12:54:02Z</time>
      </trkpt>
      <trkpt lat="47.22585" lon="5.99825">
        <ele>284.3</ele>
        <time>2024-02-26T12:54:10Z</time>
      </trkpt>
      <trkpt lat="47.22582" lon="5.99798">
        <ele>282.7</ele>
        <time>2024-02-26T12:54:17Z</time>
      </trkpt>
      <trkpt lat="47.22582" lon="5.99771">
        <ele>281</ele>
        <time>2024-02-26T12:54:23Z</time>
      </trkpt>
      <trkpt lat="47.2258" lon="5.99744">
        <ele>280</ele>
        <time>2024-02-26T12:54:30Z</time>
      </trkpt>
      <trkpt lat="47.22577" lon="5.99718">
        <ele>277.9</ele>
        <time>2024-02-26T12:54:36Z</time>
      </trkpt>
      <trkpt lat="47.22572" lon="5.99688">
        <ele>275.8</ele>
        <time>2024-02-26T12:54:42Z</time>
      </trkpt>
      <trkpt lat="47.22561" lon="5.99665">
        <ele>275.6</ele>
        <time>2024-02-26T12:54:48Z</time>
      </trkpt>
      <trkpt lat="47.22549" lon="5.99645">
        <ele>275.4</ele>
        <time>2024-02-26T12:54:55Z</time>
      </trkpt>
      <trkpt lat="47.22538" lon="5.99624">
        <ele>275.2</ele>
        <time>2024-02-26T12:55:02Z</time>
      </trkpt>
      <trkpt lat="47.22528" lon="5.99601">
        <ele>274.9</ele>
        <time>2024-02-26T12:55:09Z</time>
      </trkpt>
      <trkpt lat="47.22518" lon="5.99577">
        <ele>274.6</ele>
        <time>2024-02-26T12:55:16Z</time>
      </trkpt>
      <trkpt lat="47.22507" lon="5.99554">
        <ele>274.3</ele>
        <time>2024-02-26T12:55:23Z</time>
      </trkpt>
      <trkpt lat="47.22497" lon="5.99532">
        <ele>274</ele>
        <time>2024-02-26T12:55:30Z</time>
      </trkpt>
      <trkpt lat="47.22486" lon="5.99508">
        <ele>273.7</ele>
        <time>2024-02-26T12:55:37Z</time>
      </trkpt>
      <trkpt lat="47.22474" lon="5.99486">
        <ele>273.3</ele>
        <time>2024-02-26T12:55:44Z</time>
      </trkpt>
      <trkpt lat="47.22464" lon="5.99463">
        <ele>272.6</ele>
        <time>2024-02-26T12:55:51Z</time>
      </trkpt>
      <trkpt lat="47.22453" lon="5.99438">
        <ele>271.9</ele>
        <time>2024-02-26T12:55:58Z</time>
      </trkpt>
      <trkpt lat="47.22444" lon="5.99413">
        <ele>271.2</ele>
        <time>2024-02-26T12:56:05Z</time>
      </trkpt>
      <trkpt lat="47.22435" lon="5.99389">
        <ele>270.6</ele>
        <time>2024-02-26T12:56:12Z</time>
      </trkpt>
      <trkpt lat="47.22423" lon="5.99366">
        <ele>269.9</ele>
        <time>2024-02-26T12:56:19Z</time>
      </trkpt>
      <trkpt lat="47.22413" lon="5.9934">
        <ele>269.6</ele>
        <time>2024-02-26T12:56:26Z</time>
      </trkpt>
      <trkpt lat="47.22397" lon="5.99329">
        <ele>270</ele>
        <time>2024-02-26T12:56:34Z</time>
      </trkpt>
      <trkpt lat="47.2238" lon="5.99319">
        <ele>270.4</ele>
        <time>2024-02-26T12:56:41Z</time>
      </trkpt>
      <trkpt lat="47.22362" lon="5.99314">
        <ele>271.2</ele>
        <time>2024-02-26T12:56:48Z</time>
      </trkpt>
      <trkpt lat="47.22342" lon="5.9931">
        <ele>272</ele>
        <time>2024-02-26T12:56:56Z</time>
      </trkpt>
      <trkpt lat="47.22322" lon="5.99305">
        <ele>272.5</ele>
        <time>2024-02-26T12:57:04Z</time>
      </trkpt>
      <trkpt lat="47.22304" lon="5.99304">
        <ele>272.7</ele>
        <time>2024-02-26T12:57:11Z</time>
      </trkpt>
      <trkpt lat="47.22286" lon="5.99302">
        <ele>272.8</ele>
        <time>2024-02-26T12:57:18Z</time>
      </trkpt>
      <trkpt lat="47.22267" lon="5.993">
        <ele>273.1</ele>
        <time>2024-02-26T12:57:25Z</time>
      </trkpt>
      <trkpt lat="47.22248" lon="5.99298">
        <ele>273.5</ele>
        <time>2024-02-26T12:57:33Z</time>
      </trkpt>
      <trkpt lat="47.22229" lon="5.99294">
        <ele>273.9</ele>
        <time>2024-02-26T12:57:40Z</time>
      </trkpt>
      <trkpt lat="47.2221" lon="5.99291">
        <ele>274.4</ele>
        <time>2024-02-26T12:57:48Z</time>
      </trkpt>
      <trkpt lat="47.2219" lon="5.99289">
        <ele>275.1</ele>
        <time>2024-02-26T12:57:56Z</time>
      </trkpt>
      <trkpt lat="47.22172" lon="5.99288">
        <ele>275.7</ele>
        <time>2024-02-26T12:58:04Z</time>
      </trkpt>
      <trkpt lat="47.22152" lon="5.99286">
        <ele>276.2</ele>
        <time>2024-02-26T12:58:12Z</time>
      </trkpt>
      <trkpt lat="47.22134" lon="5.99288">
        <ele>276.6</ele>
        <time>2024-02-26T12:58:20Z</time>
      </trkpt>
      <trkpt lat="47.22116" lon="5.99294">
        <ele>276.6</ele>
        <time>2024-02-26T12:58:27Z</time>
      </trkpt>
      <trkpt lat="47.22099" lon="5.99303">
        <ele>276.6</ele>
        <time>2024-02-26T12:58:34Z</time>
      </trkpt>
      <trkpt lat="47.2208" lon="5.99306">
        <ele>276.7</ele>
        <time>2024-02-26T12:58:41Z</time>
      </trkpt>
      <trkpt lat="47.2206" lon="5.99306">
        <ele>276.6</ele>
        <time>2024-02-26T12:58:48Z</time>
      </trkpt>
      <trkpt lat="47.22042" lon="5.99299">
        <ele>276</ele>
        <time>2024-02-26T12:58:55Z</time>
      </trkpt>
      <trkpt lat="47.22028" lon="5.99283">
        <ele>275.4</ele>
        <time>2024-02-26T12:59:02Z</time>
      </trkpt>
      <trkpt lat="47.22014" lon="5.99265">
        <ele>274.7</ele>
        <time>2024-02-26T12:59:09Z</time>
      </trkpt>
      <trkpt lat="47.21999" lon="5.99247">
        <ele>274</ele>
        <time>2024-02-26T12:59:16Z</time>
      </trkpt>
      <trkpt lat="47.21983" lon="5.99236">
        <ele>273.6</ele>
        <time>2024-02-26T12:59:23Z</time>
      </trkpt>
      <trkpt lat="47.21963" lon="5.99241">
        <ele>273.5</ele>
        <time>2024-02-26T12:59:31Z</time>
      </trkpt>
      <trkpt lat="47.21948" lon="5.99256">
        <ele>273.6</ele>
        <time>2024-02-26T12:59:38Z</time>
      </trkpt>
      <trkpt lat="47.21946" lon="5.99259">
        <ele>273.6</ele>
        <time>2024-02-26T12:59:40Z</time>
      </trkpt>
    </trkseg>
  </trk>
</gpx>